Time;durP1;ratioP1;P1;durP2;ratioP2;P2;SDS_P1;SDS_P2;PMS_P1;PMS_P2;Temp;Humidity;BMP_temperature;BMP_pressure;BME280_temperature;BME280_humidity;BME280_pressure;Samples;Min_cycle;Max_cycle;Signal;HPM_P1;HPM_P2
2022/09/06 00:00:07;;;;;;;3.97;2.87;;;20.10;60.30;;;;;;6081966;23;20162;-92
2022/09/06 00:02:33;;;;;;;4.60;3.10;;;20.10;61.80;;;;;;6105816;23;20152;-92
2022/09/06 00:04:59;;;;;;;4.07;2.70;;;19.90;66.60;;;;;;6103082;23;20153;-93
2022/09/06 00:07:25;;;;;;;5.03;3.23;;;19.90;66.90;;;;;;6105524;23;20147;-93
2022/09/06 00:09:51;;;;;;;5.20;3.00;;;20.00;69.80;;;;;;6104070;23;20174;-93
2022/09/06 00:12:17;;;;;;;3.63;2.80;;;20.10;63.60;;;;;;6104768;23;20159;-93
2022/09/06 00:14:42;;;;;;;4.43;2.80;;;20.00;63.20;;;;;;6105060;23;20182;-94
2022/09/06 00:17:09;;;;;;;4.47;2.73;;;20.20;62.10;;;;;;6105190;23;20173;-92
2022/09/06 00:19:35;;;;;;;3.90;3.00;;;20.00;60.30;;;;;;6105239;23;20241;-92
2022/09/06 00:22:02;;;;;;;3.50;2.83;;;20.10;57.00;;;;;;6105025;23;20198;-95
2022/09/06 00:24:27;;;;;;;4.53;2.90;;;20.00;59.00;;;;;;6080700;23;20185;-94
2022/09/06 00:26:53;;;;;;;4.97;3.20;;;20.10;59.50;;;;;;6104429;23;20162;-92
2022/09/06 00:29:19;;;;;;;5.03;3.27;;;20.10;57.20;;;;;;6104574;23;20150;-93
2022/09/06 00:31:44;;;;;;;4.80;3.03;;;20.20;55.90;;;;;;6105533;23;20182;-91
2022/09/06 00:34:11;;;;;;;4.23;3.10;;;20.20;51.10;;;;;;6135167;23;20146;-94
2022/09/06 00:36:36;;;;;;;4.70;3.00;;;20.20;48.80;;;;;;6105766;23;20159;-94
2022/09/06 00:39:04;;;;;;;3.77;3.00;;;20.00;50.80;;;;;;6105054;23;20488;-94
2022/09/06 00:41:30;;;;;;;3.93;3.10;;;20.00;53.10;;;;;;6106234;23;20205;-92
2022/09/06 00:43:56;;;;;;;5.40;3.00;;;20.20;49.40;;;;;;6105803;23;20153;-93
2022/09/06 00:46:26;;;;;;;5.00;2.70;;;20.20;46.50;;;;;;6082152;23;20253;-92
2022/09/06 00:48:57;;;;;;;4.47;2.47;;;20.20;45.20;;;;;;6107943;23;20171;-93
2022/09/06 00:51:27;;;;;;;3.37;2.60;;;20.20;42.40;;;;;;6104451;23;20151;-95
2022/09/06 00:53:52;;;;;;;4.83;3.10;;;20.30;38.60;;;;;;6104609;23;20147;-95
2022/09/06 00:56:18;;;;;;;4.13;2.87;;;20.40;33.40;;;;;;6103776;23;20650;-92
2022/09/06 00:58:45;;;;;;;3.47;2.70;;;20.60;28.10;;;;;;6104550;23;20140;-94
2022/09/06 01:01:11;;;;;;;3.97;3.00;;;20.50;29.90;;;;;;6130347;23;20198;-93
2022/09/06 01:03:37;;;;;;;4.93;3.07;;;20.10;41.00;;;;;;6130200;23;20135;-93
2022/09/06 01:06:23;;;;;;;5.43;2.70;;;20.20;40.10;;;;;;6103136;23;20163;-93
2022/09/06 01:09:04;;;;;;;3.83;2.73;;;20.30;36.30;;;;;;6104345;23;20174;-93
2022/09/06 01:11:52;;;;;;;3.10;2.50;;;20.20;35.00;;;;;;6104211;23;20211;-93
2022/09/06 01:15:09;;;;;;;3.43;2.67;;;20.30;37.60;;;;;;6133422;23;20171;-93
2022/09/06 01:17:58;;;;;;;3.57;2.70;;;20.30;32.40;;;;;;6040577;23;20172;-92
2022/09/06 01:20:35;;;;;;;4.70;2.90;;;20.40;30.30;;;;;;6104339;23;20151;-92
2022/09/06 01:23:19;;;;;;;4.20;2.77;;;20.50;26.80;;;;;;6127902;23;20211;-93
2022/09/06 01:26:13;;;;;;;3.83;2.57;;;20.50;24.20;;;;;;6103802;23;20471;-93
2022/09/06 01:28:47;;;;;;;4.70;3.00;;;20.50;25.10;;;;;;6103786;23;20143;-94
2022/09/06 01:31:41;;;;;;;3.33;2.57;;;20.40;26.40;;;;;;6104947;23;20142;-94
2022/09/06 01:34:06;;;;;;;3.30;2.30;;;20.40;25.10;;;;;;6104153;23;20154;-92
2022/09/06 01:36:47;;;;;;;5.53;2.87;;;20.40;25.10;;;;;;6128605;23;20170;-92
2022/09/06 01:39:27;;;;;;;5.00;2.40;;;20.50;26.30;;;;;;6104950;23;20162;-95
2022/09/06 01:41:56;;;;;;;4.43;2.70;;;20.40;28.20;;;;;;6127598;23;20627;-95
2022/09/06 01:44:24;;;;;;;3.80;2.77;;;20.20;33.10;;;;;;6103925;23;20599;-94
2022/09/06 01:47:14;;;;;;;5.40;2.73;;;20.20;32.50;;;;;;6106012;23;20205;-93
2022/09/06 01:50:10;;;;;;;4.90;2.90;;;20.30;32.60;;;;;;6128182;23;20158;-93
2022/09/06 01:53:03;;;;;;;5.97;2.97;;;20.40;30.00;;;;;;6105497;23;20160;-95
2022/09/06 01:55:51;;;;;;;4.37;3.00;;;20.40;30.10;;;;;;6128410;23;20194;-93
2022/09/06 01:58:28;;;;;;;4.73;3.03;;;20.30;29.90;;;;;;6154009;23;20151;-92
2022/09/06 02:01:03;;;;;;;3.90;2.80;;;20.20;32.40;;;;;;6153710;23;20158;-94
2022/09/06 02:06:49;;;;;;;3.53;2.77;;;20.00;36.80;;;;;;6149528;23;20142;-94
2022/09/06 02:09:29;;;;;;;4.70;2.70;;;20.10;36.90;;;;;;6110329;23;20181;-93
2022/09/06 02:12:01;;;;;;;3.17;2.53;;;20.30;30.90;;;;;;6129233;23;20182;-93
2022/09/06 02:14:41;;;;;;;3.20;2.60;;;20.30;29.10;;;;;;6129543;23;20180;-91
2022/09/06 02:17:14;;;;;;;3.17;2.60;;;20.20;28.70;;;;;;6121604;23;20153;-93
2022/09/06 02:23:05;;;;;;;4.50;2.73;;;20.10;35.30;;;;;;6130563;23;20166;-92
2022/09/06 02:25:39;;;;;;;3.40;2.67;;;20.00;33.50;;;;;;6106371;23;20538;-95
2022/09/06 02:28:06;;;;;;;3.17;2.70;;;20.00;35.20;;;;;;6128897;23;20146;-93
2022/09/06 02:30:38;;;;;;;3.60;3.07;;;19.90;41.80;;;;;;6153198;23;20167;-93
2022/09/06 02:33:19;;;;;;;3.83;2.80;;;19.80;42.10;;;;;;6129656;23;20146;-93
2022/09/06 02:35:47;;;;;;;4.73;3.13;;;19.80;43.60;;;;;;6129633;23;20353;-93
2022/09/06 02:38:21;;;;;;;4.60;2.67;;;19.70;48.60;;;;;;6129465;23;20143;-93
2022/09/06 02:41:03;;;;;;;4.87;3.10;;;19.70;46.20;;;;;;6129737;23;20158;-94
2022/09/06 02:43:29;;;;;;;3.70;2.90;;;19.80;44.10;;;;;;6124056;23;20204;-95
2022/09/06 02:52:39;;;;;;;5.20;3.20;;;19.90;44.40;;;;;;6129133;23;20195;-93
2022/09/06 02:55:06;;;;;;;4.00;3.60;;;19.90;43.40;;;;;;6103823;23;20209;-93
2022/09/06 02:57:32;;;;;;;4.40;3.40;;;19.80;45.00;;;;;;6130781;23;20143;-92
2022/09/06 02:59:58;;;;;;;4.80;3.50;;;20.10;46.20;;;;;;6104047;23;20155;-93
2022/09/06 03:02:24;;;;;;;4.10;3.70;;;20.00;42.30;;;;;;6103948;23;20212;-92
2022/09/06 03:04:50;;;;;;;5.30;3.87;;;20.00;42.30;;;;;;6103282;23;20233;-93
2022/09/06 03:07:16;;;;;;;5.40;3.87;;;20.00;41.00;;;;;;6096214;23;20150;-93
2022/09/06 03:09:41;;;;;;;5.17;3.93;;;19.90;45.00;;;;;;6129001;23;20165;-94
2022/09/06 03:12:07;;;;;;;6.30;4.00;;;19.90;46.30;;;;;;6129323;23;20163;-94
2022/09/06 03:14:34;;;;;;;5.87;4.27;;;19.80;46.70;;;;;;6128748;23;20174;-94
2022/09/06 03:17:01;;;;;;;4.97;4.33;;;19.80;48.80;;;;;;6129025;23;20144;-93
2022/09/06 03:22:49;;;;;;;6.07;4.53;;;19.70;54.00;;;;;;6152083;23;20197;-96
2022/09/06 03:25:52;;;;;;;5.97;5.07;;;19.60;55.70;;;;;;6124710;23;20169;-95
2022/09/06 03:28:24;;;;;;;5.13;4.63;;;19.80;55.50;;;;;;6116693;23;20138;-95
2022/09/06 03:30:53;;;;;;;7.40;4.87;;;19.70;54.20;;;;;;6105549;23;20158;-93
2022/09/06 03:33:29;;;;;;;6.77;4.73;;;19.80;54.30;;;;;;6105344;23;20155;-96
2022/09/06 03:35:58;;;;;;;6.40;4.47;;;19.90;52.20;;;;;;6104886;23;20193;-96
2022/09/06 03:38:25;;;;;;;9.03;4.80;;;20.10;51.00;;;;;;6106221;23;20182;-93
2022/09/06 03:40:52;;;;;;;6.80;4.53;;;20.20;48.60;;;;;;6107285;23;20185;-94
2022/09/06 03:43:22;;;;;;;7.07;4.60;;;20.10;44.00;;;;;;6107918;23;20177;-95
2022/09/06 03:45:54;;;;;;;8.00;4.57;;;20.20;41.10;;;;;;6082248;23;20150;-94
2022/09/06 03:48:24;;;;;;;7.13;4.30;;;20.20;40.30;;;;;;6113198;23;20155;-94
2022/09/06 03:50:53;;;;;;;6.90;4.30;;;20.20;40.50;;;;;;6086994;23;20245;-93
2022/09/06 03:53:19;;;;;;;5.53;3.87;;;20.20;40.10;;;;;;6110577;23;20178;-93
2022/09/06 03:55:53;;;;;;;5.50;4.03;;;20.10;40.50;;;;;;6110189;23;20246;-93
2022/09/06 03:58:21;;;;;;;6.50;4.43;;;20.30;40.30;;;;;;6108620;23;20173;-94
2022/09/06 04:00:48;;;;;;;6.30;4.20;;;20.30;38.20;;;;;;6117798;23;20158;-92
2022/09/06 04:03:18;;;;;;;5.57;3.63;;;20.40;35.10;;;;;;6126348;23;20162;-93
2022/09/06 04:05:45;;;;;;;5.40;4.13;;;20.30;34.00;;;;;;6126791;23;20182;-93
2022/09/06 04:08:10;;;;;;;6.00;4.00;;;20.30;34.00;;;;;;6125688;23;20187;-93
2022/09/06 04:10:37;;;;;;;7.27;3.70;;;20.50;33.50;;;;;;6128003;23;20147;-91
2022/09/06 04:13:03;;;;;;;6.67;4.00;;;20.40;31.60;;;;;;6129424;23;20139;-90
2022/09/06 04:15:28;;;;;;;5.73;3.63;;;20.40;31.90;;;;;;6125770;23;20182;-92
2022/09/06 04:17:55;;;;;;;6.53;4.37;;;20.50;30.40;;;;;;6115180;23;20193;-95
2022/09/06 04:20:27;;;;;;;7.67;3.63;;;20.50;29.70;;;;;;6116740;23;20151;-93
2022/09/06 04:22:57;;;;;;;6.47;3.83;;;20.50;29.90;;;;;;6108402;23;20154;-91
2022/09/06 04:25:36;;;;;;;6.13;4.30;;;20.50;29.90;;;;;;6108540;23;20143;-93
2022/09/06 04:28:02;;;;;;;6.27;3.90;;;20.50;30.00;;;;;;6108713;23;20202;-92
2022/09/06 04:30:28;;;;;;;5.63;3.50;;;20.40;31.10;;;;;;6109613;23;20144;-90
2022/09/06 04:32:55;;;;;;;5.67;3.70;;;20.40;31.00;;;;;;6109375;23;20207;-91
2022/09/06 04:35:20;;;;;;;8.37;4.03;;;20.40;30.20;;;;;;6083820;23;20213;-90
2022/09/06 04:37:46;;;;;;;5.73;3.80;;;20.50;28.20;;;;;;6107058;23;20159;-94
2022/09/06 04:40:14;;;;;;;7.40;4.47;;;20.60;25.80;;;;;;6105526;23;20225;-94
2022/09/06 04:42:40;;;;;;;5.83;4.30;;;20.60;23.70;;;;;;6114526;23;20150;-94
2022/09/06 04:45:06;;;;;;;5.80;3.33;;;20.60;22.90;;;;;;6129847;23;20530;-92
2022/09/06 04:47:36;;;;;;;4.80;3.53;;;20.60;22.70;;;;;;6128661;23;20147;-93
2022/09/06 04:50:02;;;;;;;6.00;4.30;;;20.50;25.20;;;;;;6117147;23;20151;-93
2022/09/06 04:52:27;;;;;;;6.20;4.03;;;20.40;28.70;;;;;;6110549;23;20144;-94
2022/09/06 04:54:54;;;;;;;8.10;4.30;;;20.30;30.90;;;;;;6109919;23;20264;-94
2022/09/06 04:57:26;;;;;;;6.90;3.87;;;20.20;34.70;;;;;;6117564;23;20154;-94
2022/09/06 04:59:53;;;;;;;6.17;3.93;;;20.30;37.40;;;;;;6129438;23;20162;-91
2022/09/06 05:02:18;;;;;;;6.07;4.03;;;20.10;38.50;;;;;;6129530;23;20140;-92
2022/09/06 05:05:03;;;;;;;5.00;3.63;;;20.00;41.70;;;;;;6117455;23;20206;-96
2022/09/06 05:07:31;;;;;;;9.97;4.87;;;20.10;42.70;;;;;;6108140;23;20166;-93
2022/09/06 05:09:59;;;;;;;7.77;4.83;;;20.10;40.60;;;;;;6107190;23;20167;-93
2022/09/06 05:12:25;;;;;;;6.87;5.20;;;20.10;41.00;;;;;;6110274;23;20155;-95
2022/09/06 05:14:51;;;;;;;12.47;5.73;;;20.20;42.70;;;;;;6137606;23;20230;-95
2022/09/06 05:17:17;;;;;;;8.23;5.33;;;20.20;40.90;;;;;;6120777;23;20139;-93
2022/09/06 05:19:43;;;;;;;11.20;7.83;;;20.10;42.70;;;;;;6128494;23;20177;-91
2022/09/06 05:22:11;;;;;;;8.80;5.13;;;20.10;45.20;;;;;;6129189;23;20142;-94
2022/09/06 05:24:37;;;;;;;10.13;5.60;;;19.90;47.10;;;;;;6147529;23;20158;-95
2022/09/06 05:27:20;;;;;;;9.40;5.17;;;19.90;48.20;;;;;;6089073;23;20178;-95
2022/09/06 05:29:45;;;;;;;6.87;4.40;;;19.90;48.70;;;;;;6122565;23;20166;-94
2022/09/06 05:32:11;;;;;;;7.40;4.30;;;19.90;48.50;;;;;;6120211;23;20167;-93
2022/09/06 05:34:37;;;;;;;6.40;4.63;;;19.90;49.80;;;;;;6112535;23;20207;-92
2022/09/06 05:37:02;;;;;;;9.00;4.83;;;20.00;47.40;;;;;;6108147;23;20265;-94
2022/09/06 05:39:28;;;;;;;6.50;4.17;;;20.00;46.50;;;;;;6104565;23;20151;-90
2022/09/06 05:42:05;;;;;;;7.20;4.30;;;20.10;51.10;;;;;;6111198;23;20175;-96
2022/09/06 05:44:53;;;;;;;6.80;4.23;;;20.50;44.60;;;;;;6112876;23;20497;-95
2022/09/06 05:47:32;;;;;;;11.27;5.03;;;20.60;35.90;;;;;;6086763;23;20155;-96
2022/09/06 05:49:58;;;;;;;7.00;4.37;;;20.70;30.40;;;;;;6112873;23;20159;-96
2022/09/06 05:52:26;;;;;;;8.17;4.07;;;20.90;20.90;;;;;;6101404;23;20170;-95
2022/09/06 05:54:55;;;;;;;6.13;3.50;;;21.00;14.50;;;;;;6103858;23;20210;-92
2022/09/06 05:57:21;;;;;;;5.83;4.03;;;21.10;8.50;;;;;;6113241;23;20154;-94
2022/09/06 05:59:46;;;;;;;7.63;3.57;;;20.90;5.80;;;;;;6132321;23;20155;-92
2022/09/06 06:02:19;;;;;;;9.43;4.03;;;21.00;3.70;;;;;;6111689;23;20651;-93
2022/09/06 06:04:54;;;;;;;8.97;4.03;;;21.10;1.00;;;;;;6109471;23;20148;-92
2022/09/06 06:07:20;;;;;;;6.43;3.60;;;21.20;1.00;;;;;;6084977;23;20170;-87
2022/09/06 06:09:45;;;;;;;7.37;3.90;;;21.30;1.00;;;;;;6132630;23;20537;-92
2022/09/06 06:12:14;;;;;;;7.77;4.27;;;21.20;1.00;;;;;;6106237;23;20172;-90
2022/09/06 06:14:43;;;;;;;7.17;4.90;;;21.20;1.00;;;;;;6105771;23;20188;-92
2022/09/06 06:17:11;;;;;;;6.97;4.40;;;21.40;1.00;;;;;;6104787;23;20165;-90
2022/09/06 06:19:37;;;;;;;6.10;4.17;;;21.40;1.00;;;;;;6105699;23;20144;-87
2022/09/06 06:22:04;;;;;;;6.40;3.83;;;21.50;1.00;;;;;;6082329;23;20152;-90
2022/09/06 06:24:30;;;;;;;6.13;3.30;;;21.40;1.00;;;;;;6108410;23;20177;-88
2022/09/06 06:26:58;;;;;;;6.70;3.43;;;21.50;1.00;;;;;;6133476;23;20157;-90
2022/09/06 06:29:30;;;;;;;6.13;3.57;;;21.60;1.00;;;;;;6109953;23;20146;-96
2022/09/06 06:32:00;;;;;;;7.83;3.70;;;21.40;1.00;;;;;;6138659;23;20140;-94
2022/09/06 06:34:29;;;;;;;7.07;3.50;;;21.00;1.00;;;;;;6106659;23;20148;-93
2022/09/06 06:36:57;;;;;;;7.53;3.57;;;20.90;1.00;;;;;;6107210;23;20196;-94
2022/09/06 06:39:25;;;;;;;4.87;3.30;;;21.00;1.00;;;;;;6110318;23;20148;-90
2022/09/06 06:41:52;;;;;;;5.17;3.67;;;21.00;1.00;;;;;;6112500;23;20177;-89
2022/09/06 06:44:17;;;;;;;6.03;3.27;;;21.10;1.00;;;;;;6108866;23;20140;-92
2022/09/06 06:46:43;;;;;;;6.83;3.47;;;21.20;1.00;;;;;;6109585;23;20163;-92
2022/09/06 06:49:10;;;;;;;7.27;3.33;;;21.20;1.00;;;;;;6105230;23;20156;-91
2022/09/06 06:51:38;;;;;;;6.00;3.57;;;21.30;1.00;;;;;;6133370;23;20579;-92
2022/09/06 06:54:05;;;;;;;8.60;3.63;;;21.20;1.00;;;;;;6105588;23;20148;-91
2022/09/06 06:56:36;;;;;;;4.67;2.90;;;21.00;1.00;;;;;;6103880;23;20623;-92
2022/09/06 06:59:04;;;;;;;8.07;3.90;;;20.90;1.00;;;;;;6106163;23;20205;-92
2022/09/06 07:01:31;;;;;;;6.37;3.67;;;21.00;3.60;;;;;;6081272;23;20160;-92
2022/09/06 07:03:58;;;;;;;3.73;2.73;;;20.80;5.90;;;;;;6104424;23;20156;-92
2022/09/06 07:06:26;;;;;;;8.03;3.13;;;21.00;1.00;;;;;;6105256;23;20163;-93
2022/09/06 07:08:52;;;;;;;6.53;2.80;;;21.00;1.00;;;;;;6106178;23;20222;-96
2022/09/06 07:11:21;;;;;;;4.37;2.63;;;21.10;1.00;;;;;;6107069;23;20156;-94
2022/09/06 07:13:48;;;;;;;6.07;2.43;;;21.30;1.00;;;;;;6108193;23;20151;-92
2022/09/06 07:16:16;;;;;;;7.03;2.73;;;21.30;1.00;;;;;;6082872;23;20218;-92
2022/09/06 07:18:44;;;;;;;6.80;2.90;;;21.40;1.00;;;;;;6129606;23;20601;-92
2022/09/06 07:21:15;;;;;;;8.70;2.60;;;21.30;1.00;;;;;;6105198;23;20178;-92
2022/09/06 07:23:42;;;;;;;6.40;2.70;;;21.40;1.00;;;;;;6112772;23;20139;-92
2022/09/06 07:26:15;;;;;;;4.87;2.40;;;21.40;1.00;;;;;;6127141;23;20137;-93
2022/09/06 07:28:41;;;;;;;6.57;3.10;;;21.40;1.00;;;;;;6127284;23;20212;-91
2022/09/06 07:31:07;;;;;;;8.23;3.10;;;21.50;1.00;;;;;;6153239;23;20205;-91
2022/09/06 07:33:35;;;;;;;4.10;2.53;;;21.50;1.00;;;;;;6103159;23;20196;-93
2022/09/06 07:36:02;;;;;;;10.13;2.80;;;21.50;1.00;;;;;;6117252;23;20222;-94
2022/09/06 07:38:29;;;;;;;9.60;3.40;;;21.50;1.00;;;;;;6107693;23;20149;-95
2022/09/06 07:40:59;;;;;;;8.27;3.60;;;21.50;1.00;;;;;;6104111;23;20187;-93
2022/09/06 07:43:26;;;;;;;7.90;3.03;;;21.70;1.00;;;;;;6105167;23;20145;-92
2022/09/06 07:46:07;;;;;;;6.40;2.93;;;21.80;1.00;;;;;;6125806;23;20148;-93
2022/09/06 07:48:36;;;;;;;5.90;2.80;;;21.90;1.00;;;;;;6152943;23;20164;-92
2022/09/06 07:51:04;;;;;;;6.03;3.03;;;22.00;1.00;;;;;;6127393;23;20145;-92
2022/09/06 07:53:58;;;;;;;6.60;3.07;;;22.00;1.00;;;;;;6131419;23;20153;-93
2022/09/06 07:56:24;;;;;;;7.20;3.10;;;22.00;1.00;;;;;;6108621;23;20261;-96
2022/09/06 07:58:51;;;;;;;8.20;3.80;;;22.10;1.00;;;;;;6126501;23;20171;-93
2022/09/06 08:01:33;;;;;;;14.50;4.47;;;22.20;1.00;;;;;;6128558;23;20162;-93
2022/09/06 08:04:01;;;;;;;6.83;4.07;;;22.30;1.00;;;;;;6128976;23;20145;-93
2022/09/06 08:06:29;;;;;;;9.27;4.23;;;22.20;1.00;;;;;;6129397;23;20137;-92
2022/09/06 08:08:55;;;;;;;7.57;4.87;;;22.20;1.00;;;;;;6127445;23;20165;-92
2022/09/06 08:14:42;;;;;;;7.00;5.37;;;22.20;1.00;;;;;;6134264;23;20227;-91
2022/09/06 08:17:08;;;;;;;8.00;5.77;;;22.20;1.00;;;;;;6110056;23;20153;-93
2022/09/06 08:19:34;;;;;;;10.10;5.50;;;22.20;1.00;;;;;;6110956;23;20149;-92
2022/09/06 08:21:59;;;;;;;6.77;5.17;;;22.40;1.00;;;;;;6107673;23;20173;-93
2022/09/06 08:24:25;;;;;;;6.77;5.13;;;22.40;1.00;;;;;;6107631;23;20243;-94
2022/09/06 08:26:51;;;;;;;6.50;5.20;;;22.50;1.00;;;;;;6106599;23;20149;-93
2022/09/06 08:29:18;;;;;;;10.77;5.90;;;22.50;1.00;;;;;;6107851;23;20214;-95
2022/09/06 08:31:45;;;;;;;9.90;6.63;;;22.60;1.00;;;;;;6113176;23;20145;-94
2022/09/06 08:34:14;;;;;;;11.53;6.30;;;22.60;1.00;;;;;;6136107;23;20146;-94
2022/09/06 08:36:42;;;;;;;9.73;6.00;;;22.70;1.00;;;;;;6106702;23;20296;-93
2022/09/06 08:39:08;;;;;;;10.73;6.43;;;22.70;1.00;;;;;;6082976;23;20200;-96
2022/09/06 08:42:01;;;;;;;11.33;6.17;;;22.90;1.00;;;;;;6106379;23;20653;-95
2022/09/06 08:44:35;;;;;;;9.07;6.20;;;23.00;1.00;;;;;;6110587;23;20234;-94
2022/09/06 08:47:17;;;;;;;12.57;6.63;;;23.10;1.00;;;;;;6133797;23;20143;-94
2022/09/06 08:50:01;;;;;;;8.90;6.83;;;23.10;1.00;;;;;;6116696;23;20147;-95
2022/09/06 08:52:46;;;;;;;8.73;6.03;;;23.10;1.00;;;;;;6110616;23;20504;-94
2022/09/06 08:55:15;;;;;;;9.67;7.47;;;23.10;1.00;;;;;;6133037;23;20226;-94
2022/09/06 08:58:12;;;;;;;9.23;7.03;;;23.20;1.00;;;;;;6129983;23;20158;-92
2022/09/06 09:00:40;;;;;;;9.77;8.27;;;23.50;1.00;;;;;;6130447;23;20151;-93
2022/09/06 09:03:17;;;;;;;11.00;8.47;;;23.40;1.00;;;;;;6132606;23;20150;-94
2022/09/06 09:05:47;;;;;;;10.50;8.47;;;23.30;1.00;;;;;;6138638;23;20154;-95
2022/09/06 09:08:36;;;;;;;12.03;8.43;;;23.20;1.00;;;;;;6117139;23;20128;-90
2022/09/06 09:11:06;;;;;;;12.53;8.37;;;23.30;1.00;;;;;;6121791;23;20162;-93
2022/09/06 09:13:38;;;;;;;11.50;7.57;;;23.30;1.00;;;;;;6152700;23;20146;-91
2022/09/06 09:16:12;;;;;;;9.90;7.30;;;23.20;1.00;;;;;;6150041;23;20202;-94
2022/09/06 09:29:13;;;;;;;9.30;7.33;;;23.60;1.00;;;;;;6123349;23;20148;-94
2022/09/06 09:31:48;;;;;;;10.27;6.63;;;23.90;1.00;;;;;;6159506;23;20217;-93
2022/09/06 09:34:43;;;;;;;9.70;6.97;;;23.90;1.00;;;;;;6154168;23;20180;-95
2022/09/06 09:37:47;;;;;;;;;;;;;;;;;;;;;
2022/09/06 09:41:07;;;;;;;9.13;4.97;;;23.80;1.00;;;;;;6180298;23;20510;-93
2022/09/06 09:44:28;;;;;;;9.43;5.57;;;23.90;1.00;;;;;;6136683;23;20153;-93
2022/09/06 09:47:29;;;;;;;11.67;4.67;;;24.10;1.00;;;;;;6133116;23;20155;-93
2022/09/06 09:49:56;;;;;;;12.93;5.43;;;24.40;1.00;;;;;;6109393;23;20155;-94
2022/09/06 09:52:30;;;;;;;8.40;4.60;;;24.50;1.00;;;;;;6121142;23;20128;-93
2022/09/06 09:55:04;;;;;;;8.23;4.30;;;24.60;1.00;;;;;;6127771;23;20178;-94
2022/09/06 09:57:41;;;;;;;6.30;3.83;;;24.70;1.00;;;;;;6103303;23;20143;-95
2022/09/06 10:00:12;;;;;;;7.33;3.50;;;24.80;1.00;;;;;;6120830;23;20164;-94
2022/09/06 10:02:39;;;;;;;6.70;3.50;;;25.00;1.00;;;;;;6111141;23;20217;-94
2022/09/06 10:05:11;;;;;;;6.13;3.27;;;25.00;1.00;;;;;;6090401;23;20159;-92
2022/09/06 10:07:51;;;;;;;5.40;3.00;;;25.00;1.00;;;;;;6110210;23;20232;-93
2022/09/06 10:10:38;;;;;;;5.90;2.93;;;24.80;1.00;;;;;;6106838;23;20155;-96
2022/09/06 10:13:29;;;;;;;4.23;3.10;;;24.60;1.00;;;;;;6107977;23;20671;-95
2022/09/06 10:15:58;;;;;;;7.27;3.80;;;24.50;1.00;;;;;;6109811;23;20187;-93
2022/09/06 10:18:34;;;;;;;5.83;3.37;;;24.40;1.00;;;;;;6085966;23;20180;-92
2022/09/06 10:21:08;;;;;;;6.63;3.40;;;24.40;1.00;;;;;;6107953;23;20153;-93
2022/09/06 10:24:20;;;;;;;6.73;3.30;;;24.30;1.00;;;;;;6108351;23;20157;-94
2022/09/06 10:26:55;;;;;;;4.80;3.20;;;24.40;1.00;;;;;;6109729;23;20143;-95
2022/09/06 10:29:29;;;;;;;6.90;2.50;;;24.60;1.00;;;;;;6107836;23;20147;-96
2022/09/06 10:32:20;;;;;;;4.03;2.57;;;24.80;1.00;;;;;;6126701;23;20174;-94
2022/09/06 10:35:08;;;;;;;4.43;2.30;;;24.90;1.00;;;;;;6126013;23;20206;-94
2022/09/06 10:38:12;;;;;;;6.43;2.90;;;24.80;1.00;;;;;;6122493;23;20147;-94
2022/09/06 10:44:44;;;;;;;5.40;2.30;;;25.00;1.00;;;;;;6133515;23;20147;-94
2022/09/06 10:47:15;;;;;;;4.63;2.63;;;25.40;1.00;;;;;;6096826;23;20509;-94
2022/09/06 10:49:54;;;;;;;3.57;2.30;;;25.60;1.00;;;;;;6109684;23;20147;-93
2022/09/06 10:52:32;;;;;;;4.00;2.40;;;25.70;1.00;;;;;;6127916;23;20135;-95
2022/09/06 10:55:03;;;;;;;4.27;2.50;;;25.70;1.00;;;;;;6127072;23;20183;-95
2022/09/06 10:57:41;;;;;;;7.73;2.30;;;26.00;1.00;;;;;;6118612;23;20186;-94
2022/09/06 11:00:15;;;;;;;5.57;2.57;;;26.00;99.90;;;;;;6106794;23;20158;-94
2022/09/06 11:03:18;;;;;;;4.57;2.20;;;25.90;99.90;;;;;;6106385;23;20548;-95
2022/09/06 11:06:00;;;;;;;4.53;2.27;;;25.90;1.00;;;;;;6090857;23;20466;-94
2022/09/06 11:08:56;;;;;;;5.23;1.90;;;26.00;1.00;;;;;;6133581;23;20167;-96
2022/09/06 11:11:52;;;;;;;4.77;2.10;;;26.30;99.90;;;;;;6106576;23;20155;-94
2022/09/06 11:14:26;;;;;;;5.37;2.23;;;26.20;99.90;;;;;;6072692;23;20461;-94
2022/09/06 11:16:59;;;;;;;5.43;2.37;;;26.30;99.90;;;;;;6108825;23;20161;-93
2022/09/06 11:19:39;;;;;;;16.97;3.40;;;26.30;99.90;;;;;;6087595;23;20150;-92
2022/09/06 11:22:31;;;;;;;3.73;2.20;;;26.40;99.90;;;;;;6105472;23;20206;-94
2022/09/06 11:25:15;;;;;;;37.47;6.50;;;26.50;99.90;;;;;;6105841;23;20696;-92
2022/09/06 11:27:45;;;;;;;26.10;6.20;;;26.50;99.90;;;;;;6129883;23;20204;-96
2022/09/06 11:30:24;;;;;;;31.63;6.13;;;26.70;99.90;;;;;;6119819;23;20161;-93
2022/09/06 11:33:25;;;;;;;11.73;3.15;;;26.90;99.90;;;;;;6113256;23;20494;-94
2022/09/06 11:35:52;;;;;;;13.70;3.20;;;26.90;99.90;;;;;;6104749;23;20202;-96
2022/09/06 11:38:24;;;;;;;6.80;2.27;;;26.90;99.90;;;;;;6103806;23;20377;-96
2022/09/06 11:41:00;;;;;;;5.07;2.40;;;26.90;99.90;;;;;;6105244;23;20174;-93
2022/09/06 11:43:45;;;;;;;7.17;2.50;;;27.00;99.90;;;;;;6105214;23;20155;-96
2022/09/06 11:46:34;;;;;;;15.00;4.17;;;27.00;99.90;;;;;;6104839;23;20218;-94
2022/09/06 11:49:26;;;;;;;11.07;2.92;;;27.20;99.90;;;;;;6131516;23;20173;-92
2022/09/06 11:51:53;;;;;;;8.13;2.93;;;27.10;99.90;;;;;;6105723;23;20179;-94
2022/09/06 11:54:22;;;;;;;6.00;2.25;;;27.10;99.90;;;;;;6107175;23;20147;-96
2022/09/06 11:56:53;;;;;;;6.68;2.08;;;27.10;99.90;;;;;;6107700;23;20190;-95
2022/09/06 11:59:35;;;;;;;4.88;2.13;;;27.30;99.90;;;;;;6108157;23;20147;-95
2022/09/06 12:02:27;;;;;;;3.20;1.95;;;27.50;99.90;;;;;;6105582;23;20530;-95
2022/09/06 12:05:17;;;;;;;4.38;1.95;;;27.60;1.00;;;;;;6095502;23;20155;-94
2022/09/06 12:08:28;;;;;;;5.85;1.90;;;27.40;1.30;;;;;;6110929;23;20171;-93
2022/09/06 12:11:21;;;;;;;4.13;1.95;;;27.50;1.00;;;;;;6132188;23;20151;-93
2022/09/06 12:14:08;;;;;;;3.55;1.90;;;27.50;1.00;;;;;;6109407;23;20147;-96
2022/09/06 12:16:55;;;;;;;3.10;1.80;;;27.50;18.90;;;;;;6128745;23;20167;-96
2022/09/06 12:19:40;;;;;;;4.70;2.00;;;27.60;1.00;;;;;;6129650;23;20147;-92
2022/09/06 12:22:39;;;;;;;5.45;2.00;;;27.70;1.00;;;;;;6128934;23;20159;-95
2022/09/06 12:25:36;;;;;;;6.72;2.20;;;27.60;1.00;;;;;;6114361;23;20142;-94
2022/09/06 12:28:11;;;;;;;7.07;1.83;;;27.70;1.00;;;;;;6110499;23;20477;-94
2022/09/06 12:31:20;;;;;;;3.83;1.73;;;27.90;1.00;;;;;;6093344;23;20212;-94
2022/09/06 12:33:51;;;;;;;4.20;1.98;;;27.90;1.00;;;;;;6132816;23;20201;-96
2022/09/06 12:36:21;;;;;;;7.43;1.75;;;27.90;1.00;;;;;;6107049;23;20266;-93
2022/09/06 12:39:08;;;;;;;5.18;1.90;;;28.00;1.00;;;;;;6105492;23;20511;-93
2022/09/06 12:41:46;;;;;;;3.17;1.52;;;27.80;1.00;;;;;;6105325;23;20178;-93
2022/09/06 12:44:14;;;;;;;4.93;1.90;;;27.90;1.00;;;;;;6106016;23;20151;-94
2022/09/06 12:46:48;;;;;;;5.13;1.73;;;28.00;99.90;;;;;;6125922;23;20135;-96
2022/09/06 12:49:18;;;;;;;5.05;1.45;;;28.10;1.00;;;;;;6128879;23;20163;-93
2022/09/06 12:51:46;;;;;;;3.05;1.70;;;28.20;99.90;;;;;;6128507;23;20155;-94
2022/09/06 12:54:22;;;;;;;4.22;1.52;;;28.30;99.90;;;;;;6129180;23;20162;-93
2022/09/06 12:56:49;;;;;;;3.70;1.60;;;28.30;1.00;;;;;;6128012;23;20274;-95
2022/09/06 12:59:25;;;;;;;4.88;1.50;;;28.60;1.00;;;;;;6117010;23;20150;-93
2022/09/06 13:02:14;;;;;;;3.17;1.60;;;28.90;1.00;;;;;;6083737;23;20155;-93
2022/09/06 13:05:04;;;;;;;5.00;2.03;;;29.00;99.90;;;;;;6107439;23;20193;-94
2022/09/06 13:07:37;;;;;;;5.85;1.83;;;29.20;1.00;;;;;;6106980;23;20151;-94
2022/09/06 13:10:05;;;;;;;5.55;1.80;;;29.30;1.00;;;;;;6106628;23;20143;-93
2022/09/06 13:12:39;;;;;;;5.05;2.00;;;29.50;1.00;;;;;;6106539;23;20190;-96
2022/09/06 13:15:21;;;;;;;4.70;1.50;;;29.60;99.90;;;;;;6107009;23;20189;-95
2022/09/06 13:17:47;;;;;;;3.78;1.70;;;29.90;99.90;;;;;;6119268;23;20174;-94
2022/09/06 13:20:25;;;;;;;4.55;1.73;;;29.80;99.90;;;;;;6154323;23;20146;-96
2022/09/06 13:22:58;;;;;;;4.60;1.65;;;29.60;99.90;;;;;;6128819;23;20166;-96
2022/09/06 13:25:29;;;;;;;2.22;1.20;;;29.60;1.00;;;;;;6092720;23;20147;-94
2022/09/06 13:28:10;;;;;;;4.50;1.60;;;29.40;1.00;;;;;;6110266;23;20214;-95
2022/09/06 13:30:48;;;;;;;3.90;1.70;;;29.20;99.90;;;;;;6115280;23;20155;-92
2022/09/06 13:33:25;;;;;;;4.03;1.80;;;29.30;99.90;;;;;;6114190;23;20162;-95
2022/09/06 13:36:11;;;;;;;3.58;1.80;;;29.40;1.00;;;;;;6086919;23;20221;-94
2022/09/06 13:38:36;;;;;;;2.95;1.52;;;29.60;99.90;;;;;;6127848;23;20182;-94
2022/09/06 13:41:28;;;;;;;4.18;1.63;;;29.70;99.90;;;;;;6126598;23;20175;-93
2022/09/06 13:44:20;;;;;;;4.03;1.45;;;29.80;1.00;;;;;;6121526;23;20229;-95
2022/09/06 13:46:54;;;;;;;4.38;1.83;;;29.70;1.00;;;;;;6133582;23;20174;-95
2022/09/06 13:49:22;;;;;;;5.78;1.75;;;29.80;1.00;;;;;;6105769;23;20159;-94
2022/09/06 13:51:50;;;;;;;3.72;1.75;;;29.80;1.00;;;;;;6108649;23;20202;-94
2022/09/06 13:54:17;;;;;;;5.20;1.38;;;29.80;99.90;;;;;;6110775;23;20189;-96
2022/09/06 13:56:48;;;;;;;4.15;1.45;;;29.90;1.00;;;;;;6086499;23;20191;-96
2022/09/06 13:59:15;;;;;;;4.57;1.65;;;29.50;1.00;;;;;;6081087;23;20503;-95